sensor_id;sensor_type;location;lat;lon;timestamp;pressure;altitude;pressure_sealevel;temperature;humidity
49827;BME280;35715;51.570;6.036;2023-09-19T00:00:34;100628.44;;;17.76;74.66
49827;BME280;35715;51.570;6.036;2023-09-19T00:02:59;100635.41;;;17.77;74.47
49827;BME280;35715;51.570;6.036;2023-09-19T00:05:28;100636.22;;;17.74;74.50
49827;BME280;35715;51.570;6.036;2023-09-19T00:07:55;100644.88;;;17.73;74.35
49827;BME280;35715;51.570;6.036;2023-09-19T00:10:24;100639.53;;;17.70;74.76
49827;BME280;35715;51.570;6.036;2023-09-19T00:12:51;100642.19;;;17.72;74.75
49827;BME280;35715;51.570;6.036;2023-09-19T00:15:24;100641.28;;;17.70;74.41
49827;BME280;35715;51.570;6.036;2023-09-19T00:17:51;100653.31;;;17.66;75.01
49827;BME280;35715;51.570;6.036;2023-09-19T00:20:17;100645.19;;;17.59;75.11
49827;BME280;35715;51.570;6.036;2023-09-19T00:22:43;100648.59;;;17.56;75.28
49827;BME280;35715;51.570;6.036;2023-09-19T00:25:08;100652.09;;;17.56;74.98
49827;BME280;35715;51.570;6.036;2023-09-19T00:27:39;100653.56;;;17.50;75.54
49827;BME280;35715;51.570;6.036;2023-09-19T00:30:08;100658.75;;;17.48;75.47
49827;BME280;35715;51.570;6.036;2023-09-19T00:32:44;100654.31;;;17.46;75.24
49827;BME280;35715;51.570;6.036;2023-09-19T00:35:12;100654.22;;;17.43;75.35
49827;BME280;35715;51.570;6.036;2023-09-19T00:37:37;100661.84;;;17.38;75.48
49827;BME280;35715;51.570;6.036;2023-09-19T00:40:04;100655.69;;;17.36;75.47
49827;BME280;35715;51.570;6.036;2023-09-19T00:42:31;100664.28;;;17.33;75.64
49827;BME280;35715;51.570;6.036;2023-09-19T00:44:56;100660.78;;;17.33;75.81
49827;BME280;35715;51.570;6.036;2023-09-19T00:47:22;100668.50;;;17.30;75.88
49827;BME280;35715;51.570;6.036;2023-09-19T00:49:50;100668.44;;;17.28;75.85
49827;BME280;35715;51.570;6.036;2023-09-19T00:52:16;100673.31;;;17.19;76.63
49827;BME280;35715;51.570;6.036;2023-09-19T00:54:48;100678.53;;;17.19;76.21
49827;BME280;35715;51.570;6.036;2023-09-19T00:57:13;100677.47;;;17.14;76.47
49827;BME280;35715;51.570;6.036;2023-09-19T00:59:40;100686.94;;;17.12;76.47
49827;BME280;35715;51.570;6.036;2023-09-19T01:02:05;100688.56;;;17.08;76.75
49827;BME280;35715;51.570;6.036;2023-09-19T01:04:31;100690.13;;;17.05;76.53
49827;BME280;35715;51.570;6.036;2023-09-19T01:06:56;100696.19;;;17.03;76.24
49827;BME280;35715;51.570;6.036;2023-09-19T01:09:23;100702.97;;;17.00;76.49
49827;BME280;35715;51.570;6.036;2023-09-19T01:11:48;100709.88;;;16.98;76.67
49827;BME280;35715;51.570;6.036;2023-09-19T01:14:24;100705.41;;;16.95;76.40
49827;BME280;35715;51.570;6.036;2023-09-19T01:16:57;100704.22;;;16.87;76.97
49827;BME280;35715;51.570;6.036;2023-09-19T01:27:17;100712.59;;;16.80;76.63
49827;BME280;35715;51.570;6.036;2023-09-19T01:29:51;100723.00;;;16.80;76.88
49827;BME280;35715;51.570;6.036;2023-09-19T01:32:17;100720.28;;;16.77;76.69
49827;BME280;35715;51.570;6.036;2023-09-19T01:34:53;100713.34;;;16.77;76.30
49827;BME280;35715;51.570;6.036;2023-09-19T01:37:21;100726.38;;;16.77;76.11
49827;BME280;35715;51.570;6.036;2023-09-19T01:39:51;100716.69;;;16.73;76.48
49827;BME280;35715;51.570;6.036;2023-09-19T01:42:24;100719.09;;;16.68;76.25
49827;BME280;35715;51.570;6.036;2023-09-19T01:44:57;100725.19;;;16.69;75.94
49827;BME280;35715;51.570;6.036;2023-09-19T01:49:52;100729.47;;;16.67;75.82
49827;BME280;35715;51.570;6.036;2023-09-19T01:52:20;100724.13;;;16.64;75.36
49827;BME280;35715;51.570;6.036;2023-09-19T01:54:50;100731.94;;;16.64;75.02
49827;BME280;35715;51.570;6.036;2023-09-19T01:57:20;100734.53;;;16.64;75.14
49827;BME280;35715;51.570;6.036;2023-09-19T01:59:50;100736.13;;;16.60;75.05
49827;BME280;35715;51.570;6.036;2023-09-19T02:02:17;100734.19;;;16.56;74.62
49827;BME280;35715;51.570;6.036;2023-09-19T02:04:43;100739.34;;;16.55;74.91
49827;BME280;35715;51.570;6.036;2023-09-19T02:07:08;100730.66;;;16.54;74.82
49827;BME280;35715;51.570;6.036;2023-09-19T02:09:33;100734.13;;;16.55;74.51
49827;BME280;35715;51.570;6.036;2023-09-19T02:12:04;100730.59;;;16.53;74.43
49827;BME280;35715;51.570;6.036;2023-09-19T02:14:29;100746.09;;;16.49;74.28
49827;BME280;35715;51.570;6.036;2023-09-19T02:16:54;100737.34;;;16.47;74.08
49827;BME280;35715;51.570;6.036;2023-09-19T02:19:20;100743.41;;;16.48;73.83
49827;BME280;35715;51.570;6.036;2023-09-19T02:21:46;100735.47;;;16.45;73.43
49827;BME280;35715;51.570;6.036;2023-09-19T02:24:11;100740.94;;;16.51;73.64
49827;BME280;35715;51.570;6.036;2023-09-19T02:26:37;100738.28;;;16.49;73.59
49827;BME280;35715;51.570;6.036;2023-09-19T02:29:02;100737.28;;;16.46;73.37
49827;BME280;35715;51.570;6.036;2023-09-19T02:31:30;100749.56;;;16.50;73.31
49827;BME280;35715;51.570;6.036;2023-09-19T02:33:55;100755.63;;;16.49;73.12
49827;BME280;35715;51.570;6.036;2023-09-19T02:36:27;100748.63;;;16.48;73.04
49827;BME280;35715;51.570;6.036;2023-09-19T02:38:52;100753.72;;;16.45;72.87
49827;BME280;35715;51.570;6.036;2023-09-19T02:41:18;100753.66;;;16.43;72.70
49827;BME280;35715;51.570;6.036;2023-09-19T02:43:43;100751.78;;;16.41;72.56
49827;BME280;35715;51.570;6.036;2023-09-19T02:46:08;100743.78;;;16.36;72.11
49827;BME280;35715;51.570;6.036;2023-09-19T02:48:34;100748.06;;;16.34;72.40
49827;BME280;35715;51.570;6.036;2023-09-19T02:51:03;100760.25;;;16.35;72.11
49827;BME280;35715;51.570;6.036;2023-09-19T02:53:29;100757.50;;;16.32;71.89
49827;BME280;35715;51.570;6.036;2023-09-19T02:55:58;100757.50;;;16.32;72.00
49827;BME280;35715;51.570;6.036;2023-09-19T02:58:24;100762.56;;;16.29;71.65
49827;BME280;35715;51.570;6.036;2023-09-19T03:00:50;100763.28;;;16.25;71.54
49827;BME280;35715;51.570;6.036;2023-09-19T03:03:16;100764.16;;;16.25;71.57
49827;BME280;35715;51.570;6.036;2023-09-19T03:05:44;100767.66;;;16.26;71.83
49827;BME280;35715;51.570;6.036;2023-09-19T03:08:12;100764.03;;;16.22;71.38
49827;BME280;35715;51.570;6.036;2023-09-19T03:10:39;100763.97;;;16.21;71.51
49827;BME280;35715;51.570;6.036;2023-09-19T03:13:05;100763.09;;;16.20;71.61
49827;BME280;35715;51.570;6.036;2023-09-19T03:15:30;100769.97;;;16.20;71.34
49827;BME280;35715;51.570;6.036;2023-09-19T03:17:56;100774.31;;;16.19;70.99
49827;BME280;35715;51.570;6.036;2023-09-19T03:20:22;100776.84;;;16.18;71.14
49827;BME280;35715;51.570;6.036;2023-09-19T03:22:48;100775.97;;;16.17;71.02
49827;BME280;35715;51.570;6.036;2023-09-19T03:25:13;100777.59;;;16.15;71.02
49827;BME280;35715;51.570;6.036;2023-09-19T03:27:39;100777.41;;;16.10;70.81
49827;BME280;35715;51.570;6.036;2023-09-19T03:30:05;100777.41;;;16.10;70.61
49827;BME280;35715;51.570;6.036;2023-09-19T03:32:33;100779.94;;;16.09;70.55
49827;BME280;35715;51.570;6.036;2023-09-19T03:34:59;100780.66;;;16.06;70.51
49827;BME280;35715;51.570;6.036;2023-09-19T03:37:27;100779.84;;;16.07;71.02
49827;BME280;35715;51.570;6.036;2023-09-19T03:39:54;100777.19;;;16.06;70.58
49827;BME280;35715;51.570;6.036;2023-09-19T03:42:19;100769.31;;;16.04;70.53
49827;BME280;35715;51.570;6.036;2023-09-19T03:44:50;100770.13;;;16.03;70.89
49827;BME280;35715;51.570;6.036;2023-09-19T03:47:17;100771.91;;;16.04;70.86
49827;BME280;35715;51.570;6.036;2023-09-19T03:49:43;100766.72;;;16.04;70.69
49827;BME280;35715;51.570;6.036;2023-09-19T03:52:12;100768.31;;;16.01;70.31
49827;BME280;35715;51.570;6.036;2023-09-19T03:54:37;100770.06;;;16.02;70.54
49827;BME280;35715;51.570;6.036;2023-09-19T03:57:02;100770.06;;;16.02;70.74
49827;BME280;35715;51.570;6.036;2023-09-19T03:59:29;100771.72;;;16.00;70.44
49827;BME280;35715;51.570;6.036;2023-09-19T04:01:54;100764.59;;;15.95;70.96
49827;BME280;35715;51.570;6.036;2023-09-19T04:04:22;100761.91;;;15.94;70.80
49827;BME280;35715;51.570;6.036;2023-09-19T04:06:49;100761.78;;;15.91;70.82
49827;BME280;35715;51.570;6.036;2023-09-19T04:09:15;100765.09;;;15.87;70.88
49827;BME280;35715;51.570;6.036;2023-09-19T04:11:40;100765.09;;;15.87;71.02
49827;BME280;35715;51.570;6.036;2023-09-19T04:14:05;100763.31;;;15.86;71.13
49827;BME280;35715;51.570;6.036;2023-09-19T04:16:30;100762.34;;;15.84;71.36
49827;BME280;35715;51.570;6.036;2023-09-19T04:18:55;100775.28;;;15.82;71.49
49827;BME280;35715;51.570;6.036;2023-09-19T04:21:21;100769.03;;;15.78;71.52
49827;BME280;35715;51.570;6.036;2023-09-19T04:23:46;100773.38;;;15.78;71.99
49827;BME280;35715;51.570;6.036;2023-09-19T04:26:11;100780.25;;;15.77;71.66
49827;BME280;35715;51.570;6.036;2023-09-19T04:28:37;100771.34;;;15.72;72.01
49827;BME280;35715;51.570;6.036;2023-09-19T04:31:03;100769.59;;;15.73;72.08
49827;BME280;35715;51.570;6.036;2023-09-19T04:33:28;100775.66;;;15.72;72.38
49827;BME280;35715;51.570;6.036;2023-09-19T04:35:53;100782.47;;;15.70;72.66
49827;BME280;35715;51.570;6.036;2023-09-19T04:38:19;100790.34;;;15.71;72.95
49827;BME280;35715;51.570;6.036;2023-09-19T04:40:45;100795.47;;;15.70;73.33
49827;BME280;35715;51.570;6.036;2023-09-19T04:43:10;100800.75;;;15.71;73.42
49827;BME280;35715;51.570;6.036;2023-09-19T04:45:36;100799.72;;;15.68;73.70
49827;BME280;35715;51.570;6.036;2023-09-19T04:48:03;100816.16;;;15.67;73.87
49827;BME280;35715;51.570;6.036;2023-09-19T04:50:28;100808.41;;;15.68;74.16
49827;BME280;35715;51.570;6.036;2023-09-19T04:52:54;100821.44;;;15.68;74.27
49827;BME280;35715;51.570;6.036;2023-09-19T04:55:20;100820.53;;;15.68;74.75
49827;BME280;35715;51.570;6.036;2023-09-19T05:00:17;100840.63;;;15.70;75.20
49827;BME280;35715;51.570;6.036;2023-09-19T05:02:44;100846.03;;;15.75;75.21
49827;BME280;35715;51.570;6.036;2023-09-19T05:05:10;100846.34;;;15.81;74.91
49827;BME280;35715;51.570;6.036;2023-09-19T05:07:40;100849.69;;;15.78;75.35
49827;BME280;35715;51.570;6.036;2023-09-19T05:10:06;100848.88;;;15.79;75.46
49827;BME280;35715;51.570;6.036;2023-09-19T05:12:32;100851.56;;;15.81;75.17
49827;BME280;35715;51.570;6.036;2023-09-19T05:14:59;100856.97;;;15.86;75.35
49827;BME280;35715;51.570;6.036;2023-09-19T05:17:24;100858.00;;;15.89;75.33
49827;BME280;35715;51.570;6.036;2023-09-19T05:19:49;100850.09;;;15.88;75.67
49827;BME280;35715;51.570;6.036;2023-09-19T05:22:15;100863.34;;;15.92;75.23
49827;BME280;35715;51.570;6.036;2023-09-19T05:24:40;100856.56;;;15.96;75.61
49827;BME280;35715;51.570;6.036;2023-09-19T05:27:05;100853.28;;;16.00;75.06
49827;BME280;35715;51.570;6.036;2023-09-19T05:29:32;100862.06;;;16.02;75.23
49827;BME280;35715;51.570;6.036;2023-09-19T05:31:58;100865.41;;;16.00;75.41
49827;BME280;35715;51.570;6.036;2023-09-19T05:34:23;100863.63;;;15.99;75.49
49827;BME280;35715;51.570;6.036;2023-09-19T05:36:53;100863.47;;;15.95;75.38
49827;BME280;35715;51.570;6.036;2023-09-19T05:39:19;100863.53;;;15.97;74.95
49827;BME280;35715;51.570;6.036;2023-09-19T05:41:45;100864.38;;;15.96;75.29
49827;BME280;35715;51.570;6.036;2023-09-19T05:44:12;100852.84;;;15.91;75.70
49827;BME280;35715;51.570;6.036;2023-09-19T05:46:38;100850.25;;;15.91;75.36
49827;BME280;35715;51.570;6.036;2023-09-19T05:49:03;100854.66;;;15.92;75.34
49827;BME280;35715;51.570;6.036;2023-09-19T05:51:28;100855.53;;;15.92;75.58
49827;BME280;35715;51.570;6.036;2023-09-19T05:53:54;100853.75;;;15.91;75.22
49827;BME280;35715;51.570;6.036;2023-09-19T05:56:19;100863.34;;;15.92;75.59
49827;BME280;35715;51.570;6.036;2023-09-19T05:58:45;100858.19;;;15.94;75.20
49827;BME280;35715;51.570;6.036;2023-09-19T06:01:11;100856.56;;;15.96;74.99
49827;BME280;35715;51.570;6.036;2023-09-19T06:03:36;100866.28;;;16.00;75.05
49827;BME280;35715;51.570;6.036;2023-09-19T06:06:02;100857.47;;;15.96;75.04
49827;BME280;35715;51.570;6.036;2023-09-19T06:08:30;100865.34;;;15.98;75.31
49827;BME280;35715;51.570;6.036;2023-09-19T06:10:56;100860.19;;;16.00;74.87
49827;BME280;35715;51.570;6.036;2023-09-19T06:13:21;100865.53;;;16.03;75.16
49827;BME280;35715;51.570;6.036;2023-09-19T06:15:46;100863.97;;;16.06;74.86
49827;BME280;35715;51.570;6.036;2023-09-19T06:18:12;100868.50;;;16.10;74.92
49827;BME280;35715;51.570;6.036;2023-09-19T06:20:44;100871.16;;;16.12;74.97
49827;BME280;35715;51.570;6.036;2023-09-19T06:23:10;100870.34;;;16.13;75.04
49827;BME280;35715;51.570;6.036;2023-09-19T06:25:35;100859.28;;;16.17;75.08
49827;BME280;35715;51.570;6.036;2023-09-19T06:28:00;100868.91;;;16.20;74.97
49827;BME280;35715;51.570;6.036;2023-09-19T06:30:30;100862.16;;;16.23;74.91
49827;BME280;35715;51.570;6.036;2023-09-19T06:32:58;100864.75;;;16.23;75.37
49827;BME280;35715;51.570;6.036;2023-09-19T06:35:24;100859.63;;;16.25;74.95
49827;BME280;35715;51.570;6.036;2023-09-19T06:37:51;100866.44;;;16.23;75.38
49827;BME280;35715;51.570;6.036;2023-09-19T06:40:17;100874.38;;;16.26;75.42
49827;BME280;35715;51.570;6.036;2023-09-19T06:42:43;100878.91;;;16.30;75.35
49827;BME280;35715;51.570;6.036;2023-09-19T06:45:12;100882.63;;;16.35;75.67
49827;BME280;35715;51.570;6.036;2023-09-19T06:47:38;100882.00;;;16.41;75.65
49827;BME280;35715;51.570;6.036;2023-09-19T06:50:04;100875.97;;;16.42;75.72
49827;BME280;35715;51.570;6.036;2023-09-19T06:52:30;100878.03;;;16.49;75.71
49827;BME280;35715;51.570;6.036;2023-09-19T06:54:56;100889.41;;;16.51;75.66
49827;BME280;35715;51.570;6.036;2023-09-19T06:57:22;100897.69;;;16.62;75.57
49827;BME280;35715;51.570;6.036;2023-09-19T06:59:47;100893.72;;;16.70;75.66
49827;BME280;35715;51.570;6.036;2023-09-19T07:02:12;100895.69;;;16.76;75.47
49827;BME280;35715;51.570;6.036;2023-09-19T07:04:38;100889.91;;;16.83;75.41
49827;BME280;35715;51.570;6.036;2023-09-19T07:07:04;100893.59;;;16.87;75.30
49827;BME280;35715;51.570;6.036;2023-09-19T07:09:29;100897.22;;;16.90;75.29
49827;BME280;35715;51.570;6.036;2023-09-19T07:11:54;100890.59;;;16.98;75.28
49827;BME280;35715;51.570;6.036;2023-09-19T07:14:19;100893.72;;;17.11;75.15
49827;BME280;35715;51.570;6.036;2023-09-19T07:16:44;100887.19;;;17.20;74.97
49827;BME280;35715;51.570;6.036;2023-09-19T07:19:10;100895.94;;;17.23;74.50
49827;BME280;35715;51.570;6.036;2023-09-19T07:21:38;100902.38;;;17.31;74.66
49827;BME280;35715;51.570;6.036;2023-09-19T07:24:04;100898.31;;;17.37;74.38
49827;BME280;35715;51.570;6.036;2023-09-19T07:26:29;100890.72;;;17.44;74.45
49827;BME280;35715;51.570;6.036;2023-09-19T07:28:56;100904.06;;;17.51;74.57
49827;BME280;35715;51.570;6.036;2023-09-19T07:31:22;100909.53;;;17.58;73.45
49827;BME280;35715;51.570;6.036;2023-09-19T07:33:47;100901.72;;;17.80;73.68
49827;BME280;35715;51.570;6.036;2023-09-19T07:36:13;100900.66;;;17.96;73.24
49827;BME280;35715;51.570;6.036;2023-09-19T07:38:39;100894.72;;;18.00;72.75
49827;BME280;35715;51.570;6.036;2023-09-19T07:41:04;100900.53;;;17.93;72.27
49827;BME280;35715;51.570;6.036;2023-09-19T07:43:30;100912.16;;;18.01;72.66
49827;BME280;35715;51.570;6.036;2023-09-19T07:45:55;100910.16;;;17.94;72.80
49827;BME280;35715;51.570;6.036;2023-09-19T07:48:21;100907.50;;;17.93;72.66
49827;BME280;35715;51.570;6.036;2023-09-19T07:50:46;100903.19;;;17.95;72.98
49827;BME280;35715;51.570;6.036;2023-09-19T07:53:11;100907.72;;;17.99;72.46
49827;BME280;35715;51.570;6.036;2023-09-19T07:55:40;100906.13;;;18.26;72.62
49827;BME280;35715;51.570;6.036;2023-09-19T07:58:06;100903.59;;;18.76;71.72
49827;BME280;35715;51.570;6.036;2023-09-19T08:00:32;100906.47;;;19.36;69.48
49827;BME280;35715;51.570;6.036;2023-09-19T08:02:59;100911.41;;;20.08;67.58
49827;BME280;35715;51.570;6.036;2023-09-19T08:05:25;100910.41;;;20.33;67.24
49827;BME280;35715;51.570;6.036;2023-09-19T08:07:51;100915.69;;;20.65;66.24
49827;BME280;35715;51.570;6.036;2023-09-19T08:10:17;100911.75;;;20.20;65.81
49827;BME280;35715;51.570;6.036;2023-09-19T08:12:44;100924.00;;;19.91;66.51
49827;BME280;35715;51.570;6.036;2023-09-19T08:15:16;100921.84;;;20.37;65.71
49827;BME280;35715;51.570;6.036;2023-09-19T08:17:42;100920.34;;;20.77;64.10
49827;BME280;35715;51.570;6.036;2023-09-19T08:20:08;100917.59;;;20.72;64.22
49827;BME280;35715;51.570;6.036;2023-09-19T08:22:41;100920.66;;;20.88;64.06
49827;BME280;35715;51.570;6.036;2023-09-19T08:25:07;100918.06;;;21.23;63.49
49827;BME280;35715;51.570;6.036;2023-09-19T08:27:32;100912.78;;;21.56;62.34
49827;BME280;35715;51.570;6.036;2023-09-19T08:29:59;100912.69;;;21.90;61.76
49827;BME280;35715;51.570;6.036;2023-09-19T08:32:24;100913.94;;;22.09;59.76
49827;BME280;35715;51.570;6.036;2023-09-19T08:34:52;100914.41;;;22.29;59.36
49827;BME280;35715;51.570;6.036;2023-09-19T08:37:17;100903.41;;;22.47;58.61
49827;BME280;35715;51.570;6.036;2023-09-19T08:39:43;100908.75;;;22.52;56.74
49827;BME280;35715;51.570;6.036;2023-09-19T08:42:09;100910.16;;;22.80;56.02
49827;BME280;35715;51.570;6.036;2023-09-19T08:44:36;100909.72;;;23.04;57.12
49827;BME280;35715;51.570;6.036;2023-09-19T08:47:09;100913.59;;;22.76;55.98
49827;BME280;35715;51.570;6.036;2023-09-19T08:50:10;100911.38;;;22.52;56.70
49827;BME280;35715;51.570;6.036;2023-09-19T08:52:32;100916.47;;;22.42;56.70
49827;BME280;35715;51.570;6.036;2023-09-19T08:55:02;100913.84;;;23.40;55.75
49827;BME280;35715;51.570;6.036;2023-09-19T08:57:35;100918.50;;;24.16;54.30
49827;BME280;35715;51.570;6.036;2023-09-19T09:00:02;100910.94;;;23.21;53.35
49827;BME280;35715;51.570;6.036;2023-09-19T09:02:35;100903.31;;;22.88;53.68
49827;BME280;35715;51.570;6.036;2023-09-19T09:05:02;100902.78;;;23.08;55.38
49827;BME280;35715;51.570;6.036;2023-09-19T09:07:30;100899.91;;;22.94;55.76
49827;BME280;35715;51.570;6.036;2023-09-19T09:09:56;100907.28;;;22.67;53.99
49827;BME280;35715;51.570;6.036;2023-09-19T09:12:21;100912.47;;;22.63;54.62
49827;BME280;35715;51.570;6.036;2023-09-19T09:14:47;100906.66;;;22.81;54.50
49827;BME280;35715;51.570;6.036;2023-09-19T09:17:15;100910.44;;;22.49;55.41
49827;BME280;35715;51.570;6.036;2023-09-19T09:19:41;100904.34;;;22.50;54.68
49827;BME280;35715;51.570;6.036;2023-09-19T09:22:11;100903.75;;;22.65;55.00
49827;BME280;35715;51.570;6.036;2023-09-19T09:24:36;100897.31;;;22.97;55.93
49827;BME280;35715;51.570;6.036;2023-09-19T09:27:04;100894.94;;;23.09;56.08
49827;BME280;35715;51.570;6.036;2023-09-19T09:34:55;100899.13;;;24.85;52.58
49827;BME280;35715;51.570;6.036;2023-09-19T09:37:22;100906.34;;;25.04;51.91
49827;BME280;35715;51.570;6.036;2023-09-19T09:39:51;100909.97;;;25.19;51.30
49827;BME280;35715;51.570;6.036;2023-09-19T09:42:33;100905.72;;;25.31;49.17
49827;BME280;35715;51.570;6.036;2023-09-19T09:47:55;100902.69;;;26.05;45.95
49827;BME280;35715;51.570;6.036;2023-09-19T09:52:54;100895.91;;;27.58;46.44
49827;BME280;35715;51.570;6.036;2023-09-19T09:55:25;100900.25;;;28.10;43.69
49827;BME280;35715;51.570;6.036;2023-09-19T09:57:59;100891.41;;;28.05;44.49
49827;BME280;35715;51.570;6.036;2023-09-19T10:00:42;100885.03;;;28.40;44.91
49827;BME280;35715;51.570;6.036;2023-09-19T10:03:20;100872.38;;;28.87;42.28
49827;BME280;35715;51.570;6.036;2023-09-19T10:05:53;100879.19;;;29.28;42.08
49827;BME280;35715;51.570;6.036;2023-09-19T10:08:20;100883.28;;;29.62;41.07
49827;BME280;35715;51.570;6.036;2023-09-19T10:10:46;100886.50;;;29.91;40.85
49827;BME280;35715;51.570;6.036;2023-09-19T10:13:17;100880.75;;;29.46;39.91
49827;BME280;35715;51.570;6.036;2023-09-19T10:15:49;100880.09;;;29.24;39.71
49827;BME280;35715;51.570;6.036;2023-09-19T10:18:20;100876.88;;;29.77;38.90
49827;BME280;35715;51.570;6.036;2023-09-19T10:20:46;100878.81;;;29.65;38.49
49827;BME280;35715;51.570;6.036;2023-09-19T10:23:12;100876.28;;;30.29;38.45
49827;BME280;35715;51.570;6.036;2023-09-19T10:25:43;100875.25;;;30.42;39.10
49827;BME280;35715;51.570;6.036;2023-09-19T10:28:09;100886.25;;;30.15;39.45
49827;BME280;35715;51.570;6.036;2023-09-19T10:30:40;100878.31;;;29.20;39.38
49827;BME280;35715;51.570;6.036;2023-09-19T10:33:11;100882.38;;;28.49;41.45
49827;BME280;35715;51.570;6.036;2023-09-19T10:35:47;100871.97;;;28.02;43.58
49827;BME280;35715;51.570;6.036;2023-09-19T10:38:33;100881.78;;;27.04;43.27
49827;BME280;35715;51.570;6.036;2023-09-19T10:40:58;100868.44;;;26.41;43.29
49827;BME280;35715;51.570;6.036;2023-09-19T10:43:25;100869.25;;;26.19;43.19
49827;BME280;35715;51.570;6.036;2023-09-19T10:45:51;100874.50;;;26.09;43.60
49827;BME280;35715;51.570;6.036;2023-09-19T10:48:19;100882.22;;;25.73;43.83
49827;BME280;35715;51.570;6.036;2023-09-19T10:53:16;100889.63;;;25.07;43.96
49827;BME280;35715;51.570;6.036;2023-09-19T10:55:47;100884.38;;;25.13;44.20
49827;BME280;35715;51.570;6.036;2023-09-19T10:58:13;100872.09;;;25.15;44.19
49827;BME280;35715;51.570;6.036;2023-09-19T11:00:59;100877.22;;;24.98;44.35
49827;BME280;35715;51.570;6.036;2023-09-19T11:03:43;100873.84;;;25.14;44.26
49827;BME280;35715;51.570;6.036;2023-09-19T11:06:13;100881.78;;;25.18;44.83
49827;BME280;35715;51.570;6.036;2023-09-19T11:09:14;100879.38;;;25.42;45.32
49827;BME280;35715;51.570;6.036;2023-09-19T11:11:50;100876.44;;;25.10;43.51
49827;BME280;35715;51.570;6.036;2023-09-19T11:22:18;100864.25;;;25.24;44.99
49827;BME280;35715;51.570;6.036;2023-09-19T11:24:44;100867.72;;;25.20;44.27
49827;BME280;35715;51.570;6.036;2023-09-19T11:27:11;100857.28;;;25.32;43.87
49827;BME280;35715;51.570;6.036;2023-09-19T11:29:39;100855.31;;;25.08;44.35
49827;BME280;35715;51.570;6.036;2023-09-19T11:32:05;100840.25;;;25.00;45.23
49827;BME280;35715;51.570;6.036;2023-09-19T11:37:03;100827.13;;;25.04;45.26
49827;BME280;35715;51.570;6.036;2023-09-19T11:40:07;100822.81;;;25.17;44.87
49827;BME280;35715;51.570;6.036;2023-09-19T11:45:24;100826.69;;;25.65;43.46
49827;BME280;35715;51.570;6.036;2023-09-19T11:47:54;100821.41;;;25.72;43.26
49827;BME280;35715;51.570;6.036;2023-09-19T11:50:21;100816.88;;;25.46;43.80
49827;BME280;35715;51.570;6.036;2023-09-19T11:52:49;100818.56;;;25.31;43.35
49827;BME280;35715;51.570;6.036;2023-09-19T11:55:15;100806.03;;;25.07;42.31
49827;BME280;35715;51.570;6.036;2023-09-19T11:57:46;100813.94;;;25.04;43.75
49827;BME280;35715;51.570;6.036;2023-09-19T12:00:18;100810.56;;;25.28;44.32
49827;BME280;35715;51.570;6.036;2023-09-19T12:02:45;100823.75;;;25.27;43.81
49827;BME280;35715;51.570;6.036;2023-09-19T12:05:11;100812.31;;;25.26;43.13
49827;BME280;35715;51.570;6.036;2023-09-19T12:07:43;100811.09;;;26.33;41.79
49827;BME280;35715;51.570;6.036;2023-09-19T12:10:13;100801.41;;;26.48;39.53
49827;BME280;35715;51.570;6.036;2023-09-19T12:12:46;100806.78;;;26.92;40.90
49827;BME280;35715;51.570;6.036;2023-09-19T12:15:12;100792.53;;;27.61;40.66
49827;BME280;35715;51.570;6.036;2023-09-19T12:17:37;100797.81;;;27.72;40.28
49827;BME280;35715;51.570;6.036;2023-09-19T12:20:04;100806.72;;;27.19;39.16
49827;BME280;35715;51.570;6.036;2023-09-19T12:22:42;100797.94;;;26.77;40.07
49827;BME280;35715;51.570;6.036;2023-09-19T12:25:08;100798.78;;;26.57;41.04
49827;BME280;35715;51.570;6.036;2023-09-19T12:27:45;100786.44;;;26.59;42.26
49827;BME280;35715;51.570;6.036;2023-09-19T12:30:12;100795.25;;;26.61;42.06
49827;BME280;35715;51.570;6.036;2023-09-19T12:32:42;100789.94;;;26.38;42.25
49827;BME280;35715;51.570;6.036;2023-09-19T12:35:07;100793.44;;;26.20;41.65
49827;BME280;35715;51.570;6.036;2023-09-19T12:37:35;100804.78;;;25.94;42.46
49827;BME280;35715;51.570;6.036;2023-09-19T12:40:07;100794.16;;;25.82;42.53
49827;BME280;35715;51.570;6.036;2023-09-19T12:42:43;100812.47;;;25.48;41.21
49827;BME280;35715;51.570;6.036;2023-09-19T12:45:09;100802.78;;;25.41;42.89
49827;BME280;35715;51.570;6.036;2023-09-19T12:47:35;100799.13;;;25.28;43.00
49827;BME280;35715;51.570;6.036;2023-09-19T12:50:07;100798.31;;;25.32;43.43
49827;BME280;35715;51.570;6.036;2023-09-19T12:52:38;100808.81;;;25.27;42.96
49827;BME280;35715;51.570;6.036;2023-09-19T12:55:03;100806.09;;;25.17;43.34
49827;BME280;35715;51.570;6.036;2023-09-19T12:57:30;100801.47;;;24.86;43.37
49827;BME280;35715;51.570;6.036;2023-09-19T12:59:57;100798.88;;;24.91;44.47
49827;BME280;35715;51.570;6.036;2023-09-19T13:02:22;100797.00;;;24.77;44.54
49827;BME280;35715;51.570;6.036;2023-09-19T13:04:53;100797.66;;;24.56;44.19
49827;BME280;35715;51.570;6.036;2023-09-19T13:10:04;100805.69;;;24.67;44.97
49827;BME280;35715;51.570;6.036;2023-09-19T13:12:36;100806.47;;;24.58;44.28
49827;BME280;35715;51.570;6.036;2023-09-19T13:15:09;100807.97;;;24.33;44.49
49827;BME280;35715;51.570;6.036;2023-09-19T13:17:47;100816.47;;;24.07;45.10
49827;BME280;35715;51.570;6.036;2023-09-19T13:20:22;100806.53;;;23.85;45.69
49827;BME280;35715;51.570;6.036;2023-09-19T13:22:54;100802.09;;;23.84;46.22
49827;BME280;35715;51.570;6.036;2023-09-19T13:25:23;100796.81;;;23.82;45.94
49827;BME280;35715;51.570;6.036;2023-09-19T13:27:49;100804.94;;;23.98;46.36
49827;BME280;35715;51.570;6.036;2023-09-19T13:30:19;100803.28;;;24.04;46.54
49827;BME280;35715;51.570;6.036;2023-09-19T13:32:44;100799.81;;;24.13;46.56
49827;BME280;35715;51.570;6.036;2023-09-19T13:35:13;100806.88;;;24.13;46.25